Latest Weather Observations for Burketown Airport

IDQ60801

Issued at 8:35 pm EST Friday 31 October 2014 (issued every 30 minutes, with the page automatically refreshed every 10 minutes)

About weather observations | Map of weather stations | Latest weather observations for QLD | Other Formats
Station Details ID: 029077 Name: BURKETOWN AIRPORT Lat: -17.75 Lon: 139.54 Height: 5.7 m
Data from the previous 72 hours. | See also: Recent months at Burketown Airport
Date/Time
EST
Temp
°C
App
Temp
°C
Dew
Point
Rel
Hum
%
Delta-T
°C
Wind Press
QNH
hPa
Press
MSL
hPa
Rain
since 9 am
mm
Dir
 
Spd
km/h
Gust
km/h
Spd
kts
Gust
kts
31/08:30pm 27.6 29.3 23.0 76 3.1 N 19 26 10 14 1009.6 - 0.0
31/08:00pm 27.9 29.7 22.6 73 3.6 N 17 22 9 12 1009.4 - 0.0
31/07:30pm 28.5 29.8 22.3 69 4.2 N 19 24 10 13 1009.1 - 0.0
31/07:00pm 29.1 30.2 22.3 66 4.6 N 20 28 11 15 1008.8 - 0.0
31/06:30pm 29.7 30.6 22.7 66 4.8 N 22 28 12 15 1008.5 - 0.0
31/06:00pm 30.5 31.2 22.9 64 5.2 NNE 24 32 13 17 1008.3 1008.2 0.0
31/05:30pm 31.8 32.6 22.5 58 6.4 N 22 30 12 16 1008.2 - 0.0
31/05:00pm 32.0 32.2 22.1 55 6.7 N 24 33 13 18 1008.0 - 0.0
31/04:30pm 33.1 33.9 22.5 53 7.3 N 22 30 12 16 1008.1 - 0.0
31/04:00pm 33.9 34.1 22.0 49 8.1 N 24 35 13 19 1008.2 - 0.0
31/03:30pm 33.7 33.8 21.2 48 8.4 N 22 32 12 17 1008.3 - 0.0
31/03:00pm 33.5 33.3 21.3 48 8.3 N 24 37 13 20 1008.6 1008.5 0.0
31/02:30pm 34.3 33.4 21.4 47 8.7 N 28 39 15 21 1008.8 - 0.0
31/02:00pm 34.9 34.0 21.5 45 9.1 N 28 41 15 22 1009.1 - 0.0
31/01:30pm 33.0 31.3 19.8 45 8.7 N 28 35 15 19 1009.6 - 0.0
31/01:00pm 32.4 32.0 21.0 51 7.7 N 24 46 13 25 1010.1 - 0.0
31/12:55pm 32.9 31.8 21.1 50 7.9 N 28 46 15 25 1010.2 - 0.0
31/12:30pm 33.8 33.9 21.9 49 8.1 N 24 39 13 21 1010.7 - 0.0
31/12:00pm 33.3 33.1 22.1 52 7.6 N 26 39 14 21 1011.2 1011.1 0.0
31/11:30am 32.6 31.5 21.8 53 7.3 NNE 30 41 16 22 1011.5 - 0.0
31/11:00am 31.5 30.5 21.9 56 6.5 N 30 39 16 21 1012.0 - 0.0
31/10:30am 31.2 30.2 21.9 57 6.3 N 30 39 16 21 1012.3 - 0.0
31/10:00am 30.8 30.0 22.4 61 5.7 N 30 39 16 21 1012.3 - 0.0
31/09:30am 30.7 29.6 21.8 59 6.0 N 30 37 16 20 1012.1 - 0.0
31/09:00am 29.8 29.4 22.3 64 5.1 NNE 28 39 15 21 1012.0 1011.9 0.0
31/08:30am 28.8 29.8 22.8 70 4.1 NNE 22 30 12 16 1012.0 - 0.0
31/08:00am 29.3 30.7 22.5 67 4.6 N 19 26 10 14 1011.7 - 0.0
31/07:30am 27.2 28.8 23.2 79 2.7 NNE 20 24 11 13 1011.5 - 0.0
31/07:00am 25.1 26.9 23.2 89 1.3 NE 19 24 10 13 1011.2 - 0.0
31/06:30am 22.7 23.6 21.9 95 0.5 NE 20 32 11 17 1010.5 - 0.0
31/06:00am 21.5 23.8 20.7 95 0.5 NNE 9 11 5 6 1009.4 1009.3 0.0
31/05:30am 21.7 24.0 20.7 94 0.6 NNE 9 9 5 5 1009.1 - 0.0
31/05:00am 22.1 25.3 20.6 91 1.0 WNW 4 6 2 3 1008.6 - 0.0
31/04:30am 22.8 25.9 21.1 90 1.1 WSW 6 7 3 4 1008.3 - 0.0
31/04:00am 23.6 26.6 22.0 91 1.1 SW 9 13 5 7 1008.0 - 0.0
31/03:30am 23.9 26.8 22.5 92 0.9 SW 11 15 6 8 1007.8 - 0.0
31/03:00am 23.6 26.5 22.4 93 0.8 WSW 11 13 6 7 1007.9 1007.8 0.0
31/02:30am 23.6 26.7 22.2 92 0.9 WSW 9 11 5 6 1007.8 - 0.0
31/02:00am 23.8 26.7 22.4 92 0.9 WSW 11 11 6 6 1007.9 - 0.0
31/01:30am 24.1 27.0 22.5 91 1.1 W 11 13 6 7 1008.1 - 0.0
31/01:00am 24.4 27.4 22.7 90 1.1 WNW 11 13 6 7 1008.3 - 0.0
31/12:30am 24.6 27.5 22.5 88 1.4 NW 11 13 6 7 1008.7 - 0.0
31/12:00am 25.3 28.0 22.8 86 1.7 NW 13 17 7 9 1008.9 1008.8 0.0
 
Date/Time
EST
Temp
°C
App
Temp
°C
Dew
Point
Rel
Hum
%
Delta-T
°C
Wind Press
QNH
hPa
Press
MSL
hPa
Rain
since 9 am
mm
Dir
 
Spd
km/h
Gust
km/h
Spd
kts
Gust
kts
30/11:30pm 25.9 27.8 22.8 83 2.1 NW 17 20 9 11 1009.1 - 0.0
30/11:00pm 26.2 28.1 22.7 81 2.4 NNW 17 20 9 11 1009.0 - 0.0
30/10:30pm 26.5 28.1 22.8 80 2.5 NNW 19 24 10 13 1008.9 - 0.0
30/10:00pm 26.9 28.5 22.9 79 2.7 NNW 19 26 10 14 1009.1 - 0.0
30/09:30pm 27.4 29.2 23.2 78 2.9 NNW 19 26 10 14 1009.0 - 0.0
30/09:00pm 27.6 29.1 23.0 76 3.1 NNW 20 28 11 15 1008.7 1008.6 0.0
30/08:30pm 27.9 29.8 23.7 78 2.9 NNW 20 26 11 14 1008.7 - 0.0
30/08:00pm 28.3 30.7 24.3 79 2.8 N 19 26 10 14 1008.5 - 0.0
30/07:30pm 28.5 29.7 23.9 76 3.2 N 24 32 13 17 1008.2 - 0.0
30/07:00pm 28.8 29.4 23.5 73 3.6 N 26 33 14 18 1008.0 - 0.0
30/06:30pm 29.3 29.0 23.3 70 4.1 N 30 37 16 20 1007.7 - 0.0
30/06:00pm 30.1 29.8 23.3 67 4.7 N 30 37 16 20 1007.4 1007.3 0.0
30/05:30pm 31.0 31.2 23.4 64 5.2 N 28 37 15 20 1007.4 - 0.0
30/05:00pm 32.0 32.1 23.3 60 6.0 N 28 35 15 19 1007.3 - 0.0
30/04:30pm 32.9 33.1 22.7 55 7.0 N 26 35 14 19 1007.3 - 0.0
30/04:00pm 33.6 34.1 22.7 53 7.5 N 24 33 13 18 1007.3 - 0.0
30/03:30pm 34.0 33.7 21.8 49 8.3 N 26 35 14 19 1007.3 - 0.0
30/03:00pm 34.6 34.8 22.0 48 8.6 N 24 33 13 18 1007.7 1007.6 0.0
30/02:30pm 34.6 34.2 21.6 46 8.8 NNE 26 43 14 23 1008.0 - 0.0
30/02:00pm 35.6 34.9 20.3 40 10.3 NNE 24 35 13 19 1008.4 - 0.0
30/01:30pm 36.5 35.8 19.4 36 11.4 NE 22 35 12 19 1008.6 - 0.0
30/01:00pm 35.9 34.2 17.1 32 12.1 NE 22 33 12 18 1009.3 - 0.0
30/12:30pm 37.6 36.4 17.1 30 13.3 N 19 28 10 15 1009.8 - 0.0
30/12:00pm 37.2 36.8 16.2 29 13.4 N 13 20 7 11 1010.3 1010.2 0.0
30/11:30am 35.9 35.1 16.1 30 12.6 NNE 15 24 8 13 1010.7 - 0.0
30/11:00am 34.8 33.5 13.6 28 12.9 N 13 24 7 13 1011.0 - 0.0
30/10:30am 35.5 35.7 17.7 35 11.5 NNE 13 24 7 13 1011.5 - 0.0
30/10:00am 34.4 35.0 17.6 37 10.8 N 11 20 6 11 1011.9 - 0.0
30/09:30am 32.4 33.6 20.6 49 7.9 N 15 22 8 12 1012.2 - 0.0
30/09:00am 31.0 32.5 21.2 56 6.6 N 15 22 8 12 1012.3 1012.2 0.0
30/08:30am 30.0 31.0 21.7 61 5.6 NNE 19 24 10 13 1012.0 - 0.0
30/08:00am 29.2 31.1 22.7 68 4.4 NNE 17 24 9 13 1011.7 - 0.0
30/07:30am 27.3 29.3 22.9 77 3.0 NNE 17 20 9 11 1011.5 - 0.0
30/07:00am 24.2 26.8 21.9 87 1.5 NE 11 20 6 11 1011.2 - 0.0
30/06:30am 23.4 26.1 21.3 88 1.4 NE 9 13 5 7 1011.0 - 0.0
30/06:00am 23.3 25.6 21.4 89 1.3 ENE 11 13 6 7 1010.5 1010.4 0.0
30/05:30am 23.1 26.5 21.0 88 1.4 NE 4 9 2 5 1010.2 - 0.0
30/05:00am 23.6 24.7 21.3 87 1.5 NE 17 20 9 11 1010.2 - 0.0
30/04:30am 23.0 25.5 21.1 89 1.2 NNE 9 9 5 5 1009.6 - 0.0
30/04:00am 23.3 27.1 21.0 87 1.5 SSW 2 4 1 2 1009.5 - 0.0
30/03:30am 24.1 26.9 21.6 86 1.7 SW 9 13 5 7 1009.4 - 0.0
30/03:00am 24.0 26.6 21.9 88 1.4 WSW 11 13 6 7 1009.5 1009.4 0.0
30/02:30am 24.2 26.2 22.3 89 1.3 SW 15 17 8 9 1009.5 - 0.0
30/02:00am 23.9 27.0 21.4 86 1.6 NW 7 9 4 5 1009.1 - 0.0
30/01:30am 24.6 27.7 22.1 86 1.7 WNW 9 11 5 6 1009.3 - 0.0
30/01:00am 25.1 27.6 22.4 85 1.8 WNW 13 15 7 8 1009.5 - 0.0
30/12:30am 25.4 28.3 22.5 84 2.0 NW 11 15 6 8 1009.7 - 0.0
30/12:00am 25.9 28.5 22.6 82 2.2 NNW 13 17 7 9 1010.0 1009.9 0.0
 
Date/Time
EST
Temp
°C
App
Temp
°C
Dew
Point
Rel
Hum
%
Delta-T
°C
Wind Press
QNH
hPa
Press
MSL
hPa
Rain
since 9 am
mm
Dir
 
Spd
km/h
Gust
km/h
Spd
kts
Gust
kts
29/11:30pm 26.4 28.3 22.7 80 2.5 NNW 17 19 9 10 1010.0 - 0.0
29/11:00pm 26.8 28.7 22.8 79 2.7 NNW 17 20 9 11 1010.2 - 0.0
29/10:30pm 27.1 29.1 22.9 78 2.9 NNW 17 22 9 12 1010.1 - 0.0
29/10:00pm 27.5 29.2 23.1 77 3.0 NNW 19 24 10 13 1010.0 - 0.0
29/09:30pm 27.5 30.3 23.7 80 2.6 NNW 15 22 8 12 1009.8 - 0.0
29/09:00pm 27.8 31.0 24.4 82 2.4 N 15 20 8 11 1009.7 1009.6 0.0
29/08:30pm 28.2 31.2 24.6 81 2.5 N 17 22 9 12 1009.5 - 0.0
29/08:00pm 28.5 30.7 24.3 78 2.9 N 20 28 11 15 1009.4 - 0.0
29/07:30pm 29.1 31.1 24.0 74 3.5 N 20 28 11 15 1009.1 - 0.0
29/07:00pm 30.0 31.3 23.4 67 4.5 N 22 30 12 16 1008.7 - 0.0
29/06:30pm 31.0 31.6 23.4 64 5.2 N 26 35 14 19 1008.4 - 0.0
29/06:00pm 32.2 31.9 22.6 57 6.6 N 28 35 15 19 1008.1 1008.0 0.0
29/05:30pm 33.5 33.1 21.6 49 8.1 N 26 39 14 21 1008.0 - 0.0
29/05:00pm 34.7 32.5 19.5 40 10.1 N 30 37 16 20 1008.0 - 0.0
29/04:30pm 36.1 33.5 16.8 32 12.4 N 26 37 14 20 1007.9 - 0.0
29/04:00pm 36.5 33.2 16.1 29 13.0 N 28 39 15 21 1007.9 - 0.0
29/03:30pm 36.7 34.1 16.8 30 12.8 N 26 39 14 21 1008.2 - 0.0
29/03:00pm 36.9 34.4 17.0 31 12.8 N 26 37 14 20 1008.5 1008.4 0.0
29/02:30pm 37.1 35.2 17.6 31 12.7 N 24 35 13 19 1008.8 - 0.0
29/02:00pm 37.2 34.9 17.7 31 12.7 NNE 26 41 14 22 1009.0 - 0.0
29/01:30pm 37.0 34.9 17.1 31 12.8 N 24 35 13 19 1009.5 - 0.0
29/01:00pm 38.1 35.1 16.9 28 13.7 NNE 28 39 15 21 1010.0 - 0.0
29/12:30pm 37.2 35.3 15.1 27 13.9 NE 19 28 10 15 1010.6 - 0.0
29/12:00pm 37.2 35.3 15.1 27 13.9 N 19 26 10 14 1011.1 1011.0 0.0
29/11:30am 36.3 36.0 16.5 31 12.6 NNW 13 19 7 10 1011.4 - 0.0
29/11:00am 35.7 35.0 17.4 33 11.8 NW 17 24 9 13 1011.9 - 0.0
29/10:30am 34.0 33.5 17.7 38 10.5 N 17 24 9 13 1012.4 - 0.0
29/10:00am 34.1 33.4 16.5 35 11.2 NNW 15 22 8 12 1012.5 - 0.0
29/09:30am 33.8 33.2 17.5 38 10.5 W 17 24 9 13 1012.2 - 0.0
29/09:00am 31.3 31.7 19.9 50 7.5 NW 17 20 9 11 1012.2 1012.1 0.0
29/08:30am 28.6 29.2 20.3 60 5.5 NNW 17 20 9 11 1012.5 - 0.0
29/08:00am 27.5 29.7 20.3 65 4.7 ENE 9 15 5 8 1013.1 - 0.0
29/07:30am 26.9 27.7 20.7 69 4.1 E 17 22 9 12 1013.7 - 0.0
29/07:10am 25.7 25.0 21.8 79 2.6 E 28 37 15 20 1013.6 - 0.0
29/07:00am 25.3 28.3 22.0 82 2.2 SSE 9 17 5 9 1012.5 - 0.0
29/06:30am 24.7 28.0 21.8 84 1.9 ENE 7 11 4 6 1011.9 - 0.0
29/06:00am 24.3 27.6 21.4 84 1.9 E 6 11 3 6 1011.7 1011.6 0.0
29/05:30am 23.8 27.0 21.3 86 1.6 NNE 6 9 3 5 1011.7 - 0.0
29/05:00am 23.8 27.3 21.1 85 1.8 S 4 9 2 5 1011.2 - 0.0
29/04:30am 23.2 26.1 20.7 86 1.6 WSW 6 9 3 5 1010.3 - 0.0
29/04:00am 23.4 26.4 21.3 88 1.4 SW 7 7 4 4 1010.0 - 0.0
29/03:30am 22.9 25.3 20.8 88 1.4 WSW 9 11 5 6 1009.7 - 0.0
29/03:00am 22.6 24.8 20.3 87 1.5 WNW 9 11 5 6 1009.5 1009.4 0.0
29/02:30am 23.0 25.7 20.7 87 1.5 WNW 7 9 4 5 1009.7 - 0.0
29/02:00am 23.0 25.3 20.7 87 1.5 W 9 11 5 6 1009.5 - 0.0
29/01:30am 23.6 26.0 20.9 85 1.8 NNW 9 11 5 6 1009.5 - 0.0
29/01:00am 24.0 26.3 21.3 85 1.8 NW 11 13 6 7 1009.6 - 0.0
29/12:30am 24.9 27.1 21.8 83 2.1 WNW 13 15 7 8 1009.5 - 0.0
29/12:00am 25.3 27.6 22.0 82 2.2 WNW 13 17 7 9 1009.7 1009.6 0.0
 
Date/Time
EST
Temp
°C
App
Temp
°C
Dew
Point
Rel
Hum
%
Delta-T
°C
Wind Press
QNH
hPa
Press
MSL
hPa
Rain
since 9 am
mm
Dir
 
Spd
km/h
Gust
km/h
Spd
kts
Gust
kts
28/11:30pm 25.9 27.7 22.6 82 2.2 NW 17 22 9 12 1009.9 - 0.0
28/11:00pm 26.1 28.8 23.4 85 1.8 WNW 15 20 8 11 1010.1 - 0.0
28/10:30pm 25.9 28.7 23.0 84 2.0 NW 13 15 7 8 1010.3 - 0.0
28/10:00pm 26.4 29.1 22.9 81 2.4 NNW 13 17 7 9 1010.3 - 0.0
28/09:30pm 26.7 29.0 22.8 79 2.6 N 15 17 8 9 1010.4 - 0.0
28/09:00pm 27.2 29.4 23.2 79 2.7 N 17 20 9 11 1010.2 1010.1 0.0

Other Formats:

Comma delimited format used in spreadsheet applications
http://www.bom.gov.au/fwo/IDQ60801/IDQ60801.94260.axf

JavaScript Object Notation format (JSON) in row-major order
http://www.bom.gov.au/fwo/IDQ60801/IDQ60801.94260.json